createdAt,value
2023-01-11T00:02:15.408Z,3.33
2023-01-11T00:04:42.740Z,3.47
2023-01-11T00:07:10.043Z,3.60
2023-01-11T00:09:37.261Z,4.40
2023-01-11T00:12:04.511Z,4.18
2023-01-11T00:14:31.684Z,3.67
2023-01-11T00:16:59.925Z,3.92
2023-01-11T00:19:27.303Z,3.78
2023-01-11T00:21:54.466Z,4.30
2023-01-11T00:24:21.734Z,4.30
2023-01-11T00:26:48.907Z,4.75
2023-01-11T00:29:16.180Z,4.35
2023-01-11T00:31:43.446Z,4.43
2023-01-11T00:34:10.793Z,5.22
2023-01-11T00:36:37.958Z,4.22
2023-01-11T00:39:05.241Z,4.35
2023-01-11T00:41:51.237Z,5.18
2023-01-11T00:44:37.360Z,3.92
2023-01-11T00:47:23.196Z,4.55
2023-01-11T00:49:50.470Z,4.40
2023-01-11T00:52:17.653Z,4.17
2023-01-11T00:54:44.869Z,4.00
2023-01-11T00:57:12.113Z,4.05
2023-01-11T00:59:39.681Z,4.20
2023-01-11T01:02:06.935Z,4.22
2023-01-11T01:04:34.171Z,3.60
2023-01-11T01:07:01.350Z,4.03
2023-01-11T01:09:28.648Z,3.83
2023-01-11T01:11:55.956Z,3.95
2023-01-11T01:14:26.063Z,4.70
2023-01-11T01:16:53.792Z,4.32
2023-01-11T01:19:22.407Z,4.43
2023-01-11T01:21:52.510Z,4.13
2023-01-11T01:24:19.703Z,4.43
2023-01-11T01:26:47.700Z,4.68
2023-01-11T01:29:15.943Z,4.80
2023-01-11T01:31:43.709Z,4.55
2023-01-11T01:34:11.218Z,4.60
2023-01-11T01:36:38.377Z,4.25
2023-01-11T01:39:05.780Z,5.07
2023-01-11T01:41:33.034Z,4.35
2023-01-11T01:44:01.012Z,5.20
2023-01-11T01:46:29.691Z,5.45
2023-01-11T01:49:23.358Z,4.63
2023-01-11T01:51:52.120Z,4.40
2023-01-11T01:54:20.907Z,4.75
2023-01-11T01:56:52.320Z,4.80
2023-01-11T01:59:19.823Z,4.63
2023-01-11T02:01:48.014Z,4.50
2023-01-11T02:04:21.153Z,4.25
2023-01-11T02:06:48.577Z,4.05
2023-01-11T02:09:24.316Z,4.38
2023-01-11T02:11:51.539Z,4.45
2023-01-11T02:14:18.928Z,4.03
2023-01-11T02:16:46.096Z,5.07
2023-01-11T02:19:36.386Z,3.83
2023-01-11T02:22:23.039Z,4.05
2023-01-11T02:24:50.231Z,4.25
2023-01-11T02:27:21.959Z,4.10
2023-01-11T02:29:51.643Z,3.85
2023-01-11T02:32:22.095Z,4.03
2023-01-11T02:34:51.601Z,3.63
2023-01-11T02:37:22.151Z,3.67
2023-01-11T02:39:56.648Z,3.47
2023-01-11T02:43:01.520Z,3.85
2023-01-11T02:45:33.494Z,4.10
2023-01-11T02:48:01.640Z,3.80
2023-01-11T02:50:32.509Z,4.43
2023-01-11T02:53:01.428Z,3.93
2023-01-11T02:55:30.265Z,3.83
2023-01-11T02:57:57.817Z,4.20
2023-01-11T03:00:25.314Z,3.80
2023-01-11T03:03:08.610Z,3.97
2023-01-11T03:05:36.528Z,4.05
2023-01-11T03:08:06.757Z,4.75
2023-01-11T03:10:46.120Z,3.80
2023-01-11T03:13:16.099Z,3.78
2023-01-11T03:15:46.162Z,4.07
2023-01-11T03:18:23.213Z,3.60
2023-01-11T03:20:51.716Z,3.20
2023-01-11T03:23:25.516Z,3.20
2023-01-11T03:26:05.848Z,3.80
2023-01-11T03:28:56.319Z,3.38
2023-01-11T03:31:23.527Z,3.17
2023-01-11T03:34:01.742Z,2.65
2023-01-11T03:36:35.217Z,2.90
2023-01-11T03:39:15.133Z,2.92
2023-01-11T03:41:42.366Z,3.60
2023-01-11T03:44:10.112Z,3.17
2023-01-11T03:46:38.929Z,2.90
2023-01-11T03:49:08.326Z,2.95
2023-01-11T03:51:36.360Z,2.88
2023-01-11T03:54:04.385Z,2.88
2023-01-11T03:56:34.639Z,3.17
2023-01-11T03:59:01.946Z,2.63
2023-01-11T04:01:29.141Z,2.53
2023-01-11T04:03:56.413Z,2.60
2023-01-11T04:06:23.689Z,2.73
2023-01-11T04:08:51.007Z,2.60
2023-01-11T04:11:18.171Z,3.03
2023-01-11T04:13:45.333Z,2.85
2023-01-11T04:16:12.571Z,2.72
2023-01-11T04:18:39.841Z,3.90
2023-01-11T04:21:07.017Z,2.88
2023-01-11T04:23:34.212Z,3.40
2023-01-11T04:26:01.406Z,2.80
2023-01-11T04:28:28.586Z,2.85
2023-01-11T04:30:55.754Z,3.63
2023-01-11T04:33:22.946Z,2.50
2023-01-11T04:35:50.484Z,2.85
2023-01-11T04:38:18.820Z,2.60
2023-01-11T04:40:46.025Z,2.30
2023-01-11T04:43:13.213Z,2.80
2023-01-11T04:45:40.463Z,2.58
2023-01-11T04:48:07.775Z,2.90
2023-01-11T04:50:35.010Z,2.80
2023-01-11T04:53:02.229Z,2.95
2023-01-11T04:55:29.406Z,2.63
2023-01-11T04:57:56.574Z,2.90
2023-01-11T05:00:23.812Z,2.70
2023-01-11T05:02:51.037Z,2.13
2023-01-11T05:05:18.227Z,3.20
2023-01-11T05:07:45.497Z,2.65
2023-01-11T05:10:12.723Z,2.60
2023-01-11T05:12:39.936Z,2.88
2023-01-11T05:15:07.516Z,2.50
2023-01-11T05:17:34.711Z,2.95
2023-01-11T05:20:01.933Z,2.78
2023-01-11T05:22:29.147Z,2.88
2023-01-11T05:24:56.333Z,3.10
2023-01-11T05:27:23.649Z,2.60
2023-01-11T05:29:50.849Z,2.90
2023-01-11T05:32:18.058Z,2.83
2023-01-11T05:34:45.327Z,2.17
2023-01-11T05:37:12.577Z,2.40
2023-01-11T05:39:40.022Z,2.30
2023-01-11T05:42:07.189Z,2.10
2023-01-11T05:44:52.996Z,2.65
2023-01-11T05:47:20.265Z,2.10
2023-01-11T05:49:47.625Z,2.53
2023-01-11T05:52:15.070Z,2.30
2023-01-11T05:54:42.363Z,2.00
2023-01-11T05:57:11.706Z,2.28
2023-01-11T05:59:38.998Z,2.10
2023-01-11T06:02:06.390Z,2.30
2023-01-11T06:04:33.789Z,2.10
2023-01-11T06:07:01.043Z,2.63
2023-01-11T06:09:28.392Z,2.13
2023-01-11T06:11:55.589Z,2.17
2023-01-11T06:14:22.828Z,2.60
2023-01-11T06:16:50.065Z,2.30
2023-01-11T06:19:17.985Z,2.20
2023-01-11T06:21:45.195Z,3.00
2023-01-11T06:24:12.386Z,2.90
2023-01-11T06:26:39.606Z,2.70
2023-01-11T06:29:06.775Z,2.47
2023-01-11T06:31:34.021Z,2.80
2023-01-11T06:34:01.191Z,2.88
2023-01-11T06:36:29.738Z,2.63
2023-01-11T06:38:57.119Z,2.70
2023-01-11T06:41:24.443Z,2.22
2023-01-11T06:43:51.803Z,2.17
2023-01-11T06:46:19.386Z,2.08
2023-01-11T06:48:46.769Z,2.50
2023-01-11T06:51:14.516Z,2.35
2023-01-11T06:53:42.007Z,2.20
2023-01-11T06:56:10.546Z,3.05
2023-01-11T06:58:38.365Z,2.63
2023-01-11T07:01:06.185Z,2.90
2023-01-11T07:03:33.671Z,3.20
2023-01-11T07:06:00.854Z,3.00
2023-01-11T07:08:28.373Z,2.80
2023-01-11T07:10:55.745Z,2.85
2023-01-11T07:13:22.911Z,3.03
2023-01-11T07:15:50.596Z,2.78
2023-01-11T07:18:18.382Z,3.15
2023-01-11T07:20:45.585Z,3.13
2023-01-11T07:23:12.827Z,3.23
2023-01-11T07:25:41.059Z,3.17
2023-01-11T07:28:08.560Z,3.17
2023-01-11T07:30:51.919Z,3.13
2023-01-11T07:33:23.618Z,2.97
2023-01-11T07:35:50.867Z,2.65
2023-01-11T07:38:18.107Z,3.08
2023-01-11T07:40:45.356Z,3.22
2023-01-11T07:43:15.740Z,2.92
2023-01-11T07:45:48.025Z,3.10
2023-01-11T07:48:15.769Z,2.75
2023-01-11T07:50:45.103Z,3.03
2023-01-11T07:53:12.631Z,3.22
2023-01-11T07:55:40.164Z,3.28
2023-01-11T07:58:08.177Z,3.05
2023-01-11T08:00:35.425Z,3.17
2023-01-11T08:03:03.098Z,3.00
2023-01-11T08:05:30.637Z,3.22
2023-01-11T08:07:58.076Z,3.50
2023-01-11T08:10:25.324Z,2.87
2023-01-11T08:13:11.354Z,3.03
2023-01-11T08:15:42.372Z,3.60
2023-01-11T08:18:09.917Z,3.45
2023-01-11T08:20:37.261Z,3.22
2023-01-11T08:23:08.412Z,3.55
2023-01-11T08:25:35.609Z,3.55
2023-01-11T08:28:03.043Z,3.47
2023-01-11T08:30:30.317Z,3.50
2023-01-11T08:32:57.819Z,2.75
2023-01-11T08:35:25.855Z,3.05
2023-01-11T08:37:53.216Z,2.60
2023-01-11T08:40:23.588Z,3.53
2023-01-11T08:42:51.154Z,2.70
2023-01-11T08:45:18.429Z,3.80
2023-01-11T08:47:47.036Z,2.83
2023-01-11T08:50:17.398Z,2.88
2023-01-11T08:52:45.006Z,2.50
2023-01-11T08:55:12.204Z,2.45
2023-01-11T08:57:39.656Z,3.00
2023-01-11T09:00:07.592Z,2.60
2023-01-11T09:02:34.860Z,2.70
2023-01-11T09:05:02.137Z,2.85
2023-01-11T09:07:29.361Z,2.83
2023-01-11T09:09:56.555Z,2.50
2023-01-11T09:12:23.810Z,2.93
2023-01-11T09:14:51.114Z,2.73
2023-01-11T09:17:18.433Z,2.53
2023-01-11T09:19:45.621Z,2.77
2023-01-11T09:22:12.825Z,2.65
2023-01-11T09:24:40.013Z,2.47
2023-01-11T09:27:07.225Z,2.53
2023-01-11T09:29:37.146Z,2.83
2023-01-11T09:32:04.840Z,2.90
2023-01-11T09:34:32.279Z,2.88
2023-01-11T09:37:02.771Z,2.60
2023-01-11T09:39:30.297Z,3.10
2023-01-11T09:42:05.590Z,2.88
2023-01-11T09:44:33.597Z,3.13
2023-01-11T09:47:05.718Z,2.70
2023-01-11T09:49:35.144Z,2.30
2023-01-11T09:52:09.665Z,2.70
2023-01-11T09:54:36.881Z,2.90
2023-01-11T09:57:37.564Z,2.88
2023-01-11T10:00:11.900Z,3.00
2023-01-11T10:02:42.511Z,2.55
2023-01-11T10:05:23.445Z,2.70
2023-01-11T10:18:23.130Z,3.05
2023-01-11T10:19:48.043Z,2.65
2023-01-11T10:22:23.469Z,2.55
2023-01-11T10:25:23.697Z,2.60
2023-01-11T10:28:01.985Z,2.50
2023-01-11T10:30:52.301Z,2.57
2023-01-11T10:33:37.921Z,2.42
2023-01-11T10:36:27.589Z,2.67
2023-01-11T10:39:37.683Z,2.93
2023-01-11T10:42:12.026Z,2.60
2023-01-11T10:44:42.410Z,2.42
2023-01-11T10:47:16.313Z,2.67
2023-01-11T10:49:52.958Z,2.58
2023-01-11T10:52:25.739Z,2.53
2023-01-11T10:54:56.104Z,2.70
2023-01-11T10:57:59.772Z,2.58
2023-01-11T11:00:33.679Z,2.60
2023-01-11T11:03:07.188Z,2.42
2023-01-11T11:05:41.261Z,2.15
2023-01-11T11:08:13.727Z,2.40
2023-01-11T11:10:42.255Z,2.33
2023-01-11T11:13:15.758Z,2.05
2023-01-11T11:15:50.663Z,2.10
2023-01-11T11:18:17.845Z,2.17
2023-01-11T11:20:46.414Z,2.05
2023-01-11T11:23:15.822Z,2.10
2023-01-11T11:25:43.504Z,2.13
2023-01-11T11:28:23.361Z,2.35
2023-01-11T11:30:52.271Z,2.08
2023-01-11T11:33:31.955Z,1.98
2023-01-11T11:36:02.353Z,2.30
2023-01-11T11:38:30.387Z,1.92
2023-01-11T11:41:05.022Z,2.22
2023-01-11T11:43:32.832Z,2.38
2023-01-11T11:46:00.867Z,2.20
2023-01-11T11:48:29.140Z,2.10
2023-01-11T11:50:57.163Z,2.10
2023-01-11T11:53:34.060Z,2.00
2023-01-11T11:56:06.671Z,2.33
2023-01-11T11:58:33.959Z,2.95
2023-01-11T12:01:02.511Z,2.10
2023-01-11T12:03:30.837Z,2.22
2023-01-11T12:06:02.162Z,1.90
2023-01-11T12:08:30.161Z,2.30
2023-01-11T12:10:59.529Z,2.00
2023-01-11T12:13:27.806Z,2.10
2023-01-11T12:15:58.942Z,1.60
2023-01-11T12:18:33.529Z,1.50
2023-01-11T12:21:32.926Z,1.73
2023-01-11T12:24:23.882Z,1.80
2023-01-11T12:27:17.232Z,2.00
2023-01-11T12:29:59.594Z,7.20
2023-01-11T12:32:42.179Z,3.90
2023-01-11T12:35:15.461Z,9.32
2023-01-11T12:38:01.362Z,17.00
2023-01-11T12:40:47.611Z,4.40
2023-01-11T12:43:26.586Z,3.78
2023-01-11T12:46:12.412Z,4.15
2023-01-11T12:48:58.358Z,56.78
2023-01-11T12:51:25.819Z,21.83
2023-01-11T12:53:52.989Z,10.50
2023-01-11T12:56:26.420Z,42.87
2023-01-11T12:59:02.063Z,7.47
2023-01-11T13:01:35.609Z,2.00
2023-01-11T13:04:12.295Z,6.68
2023-01-11T13:06:58.607Z,2.10
2023-01-11T13:09:43.045Z,1.70
2023-01-11T13:12:13.248Z,1.60
2023-01-11T13:14:46.259Z,5.30
2023-01-11T13:17:19.410Z,1.80
2023-01-11T13:19:46.647Z,2.30
2023-01-11T13:22:15.495Z,1.52
2023-01-11T13:24:42.793Z,1.40
2023-01-11T13:27:12.811Z,1.60
2023-01-11T13:29:46.933Z,1.85
2023-01-11T13:32:15.125Z,1.92
2023-01-11T13:34:42.447Z,1.70
2023-01-11T13:37:12.437Z,1.55
2023-01-11T13:39:45.684Z,2.08
2023-01-11T13:42:22.250Z,1.77
2023-01-11T13:44:55.757Z,2.10
2023-01-11T13:47:36.319Z,1.85
2023-01-11T13:50:13.421Z,1.83
2023-01-11T13:52:43.227Z,2.08
2023-01-11T13:55:14.220Z,1.70
2023-01-11T13:58:06.487Z,2.10
2023-01-11T14:00:33.694Z,1.85
2023-01-11T14:03:04.489Z,1.58
2023-01-11T14:05:34.877Z,1.70
2023-01-11T14:08:14.401Z,2.03
2023-01-11T14:11:16.977Z,2.20
2023-01-11T14:14:17.859Z,1.90
2023-01-11T14:16:56.876Z,2.22
2023-01-11T14:19:43.040Z,2.30
2023-01-11T14:22:32.931Z,2.03
2023-01-11T14:25:04.748Z,2.10
2023-01-11T14:27:50.917Z,2.42
2023-01-11T14:30:36.933Z,2.33
2023-01-11T14:33:23.022Z,2.40
2023-01-11T14:36:05.470Z,2.40
2023-01-11T14:38:58.701Z,2.53
2023-01-11T14:41:28.634Z,2.58
2023-01-11T14:44:05.046Z,2.83
2023-01-11T14:46:47.765Z,3.78
2023-01-11T14:49:30.422Z,7.05
2023-01-11T14:51:59.420Z,3.65
2023-01-11T14:54:26.658Z,6.13
2023-01-11T14:56:56.675Z,5.97
2023-01-11T14:59:30.051Z,5.75
2023-01-11T15:02:06.189Z,3.35
2023-01-11T15:04:34.448Z,5.47
2023-01-11T15:07:01.878Z,3.70
2023-01-11T15:09:45.552Z,4.40
2023-01-11T15:12:19.242Z,5.30
2023-01-11T15:14:46.836Z,3.60
2023-01-11T15:17:35.103Z,4.70
2023-01-11T15:20:09.567Z,6.20
2023-01-11T15:22:36.912Z,5.80
2023-01-11T15:25:05.436Z,3.50
2023-01-11T15:27:36.648Z,4.28
2023-01-11T15:30:04.734Z,4.38
2023-01-11T15:32:35.439Z,7.10
2023-01-11T15:35:21.586Z,3.97
2023-01-11T15:37:49.803Z,3.53
2023-01-11T15:40:18.321Z,3.58
2023-01-11T15:43:00.952Z,3.60
2023-01-11T15:45:36.995Z,3.78
2023-01-11T15:48:22.716Z,3.90
2023-01-11T15:51:05.205Z,4.38
2023-01-11T15:53:32.411Z,4.22
2023-01-11T15:56:18.571Z,4.85
2023-01-11T15:58:48.816Z,4.85
2023-01-11T16:01:26.524Z,4.80
2023-01-11T16:03:54.237Z,4.70
2023-01-11T16:06:30.495Z,4.68
2023-01-11T16:09:03.748Z,5.57
2023-01-11T16:11:39.808Z,5.28
2023-01-11T16:14:25.496Z,6.50
2023-01-11T16:16:55.356Z,5.60
2023-01-11T16:19:23.510Z,5.00
2023-01-11T16:21:51.357Z,6.30
2023-01-11T16:24:20.376Z,6.68
2023-01-11T16:26:54.445Z,6.40
2023-01-11T16:29:24.924Z,6.50
2023-01-11T16:31:56.481Z,7.00
2023-01-11T16:34:23.760Z,6.68
2023-01-11T16:36:50.990Z,13.02
2023-01-11T16:39:20.484Z,13.27
2023-01-11T16:41:51.528Z,10.80
2023-01-11T16:44:21.682Z,10.43
2023-01-11T16:47:12.033Z,9.18
2023-01-11T16:49:39.718Z,7.70
2023-01-11T16:52:35.795Z,10.20
2023-01-11T16:55:03.577Z,13.50
2023-01-11T16:57:31.818Z,30.98
2023-01-11T17:00:02.960Z,67.72
2023-01-11T17:02:32.824Z,8.82
2023-01-11T17:05:00.637Z,11.32
2023-01-11T17:07:28.603Z,14.55
2023-01-11T17:10:14.257Z,10.63
2023-01-11T17:12:41.783Z,7.65
2023-01-11T17:15:12.099Z,6.82
2023-01-11T17:17:39.499Z,6.65
2023-01-11T17:20:14.366Z,6.22
2023-01-11T17:22:41.518Z,7.47
2023-01-11T17:25:09.262Z,6.45
2023-01-11T17:27:40.611Z,5.90
2023-01-11T17:30:18.162Z,6.68
2023-01-11T17:32:46.108Z,6.47
2023-01-11T17:35:17.054Z,6.82
2023-01-11T17:37:48.367Z,7.35
2023-01-11T17:40:21.721Z,7.07
2023-01-11T17:43:07.715Z,7.00
2023-01-11T17:45:35.014Z,7.03
2023-01-11T17:48:12.924Z,6.55
2023-01-11T17:50:47.341Z,8.02
2023-01-11T17:53:21.990Z,6.63
2023-01-11T17:55:53.144Z,6.18
2023-01-11T17:58:26.403Z,5.50
2023-01-11T18:01:08.529Z,5.85
2023-01-11T18:03:45.821Z,5.78
2023-01-11T18:06:32.933Z,17.55
2023-01-11T18:09:23.776Z,46.30
2023-01-11T18:11:58.476Z,89.13
2023-01-11T18:14:27.387Z,66.18
2023-01-11T18:16:58.411Z,172.95
2023-01-11T18:19:35.784Z,87.00
2023-01-11T18:22:02.944Z,183.68
2023-01-11T18:24:43.035Z,28.30
2023-01-11T18:27:20.129Z,57.67
2023-01-11T18:29:47.736Z,18.08
2023-01-11T18:32:15.163Z,18.98
2023-01-11T18:34:42.359Z,13.50
2023-01-11T18:37:10.387Z,5.10
2023-01-11T18:39:37.572Z,3.85
2023-01-11T18:42:08.599Z,3.50
2023-01-11T18:44:42.796Z,4.28
2023-01-11T18:47:16.123Z,5.20
2023-01-11T18:49:43.439Z,34.58
2023-01-11T18:52:11.186Z,4.78
2023-01-11T18:54:38.455Z,6.72
2023-01-11T18:57:05.678Z,11.37
2023-01-11T18:59:32.893Z,5.15
2023-01-11T19:02:16.108Z,23.10
2023-01-11T19:04:44.414Z,5.88
2023-01-11T19:07:11.762Z,12.05
2023-01-11T19:09:39.041Z,4.20
2023-01-11T19:12:06.509Z,5.38
2023-01-11T19:14:33.691Z,8.95
2023-01-11T19:17:00.983Z,9.68
2023-01-11T19:19:28.176Z,9.80
2023-01-11T19:21:55.339Z,8.57
2023-01-11T19:24:22.535Z,15.40
2023-01-11T19:26:49.858Z,7.80
2023-01-11T19:29:18.953Z,6.90
2023-01-11T19:31:46.469Z,9.57
2023-01-11T19:34:13.748Z,7.30
2023-01-11T19:36:41.022Z,7.20
2023-01-11T19:39:11.368Z,7.68
2023-01-11T19:41:57.069Z,6.57
2023-01-11T19:44:27.059Z,7.18
2023-01-11T19:47:09.684Z,9.63
2023-01-11T19:49:37.458Z,52.70
2023-01-11T19:52:05.612Z,35.28
2023-01-11T19:54:32.801Z,12.27
2023-01-11T19:57:00.068Z,31.40
2023-01-11T19:59:27.265Z,29.27
2023-01-11T20:01:54.474Z,11.35
2023-01-11T20:04:21.681Z,12.63
2023-01-11T20:06:53.726Z,11.68
2023-01-11T20:09:21.322Z,96.68
2023-01-11T20:11:53.226Z,30.10
2023-01-11T20:14:20.566Z,19.37
2023-01-11T20:16:47.793Z,16.47
2023-01-11T20:19:14.965Z,28.20
2023-01-11T20:21:42.317Z,118.28
2023-01-11T20:24:12.102Z,180.65
2023-01-11T20:26:39.447Z,106.00
2023-01-11T20:29:06.836Z,34.67
2023-01-11T20:31:35.482Z,88.88
2023-01-11T20:34:13.517Z,203.45
2023-01-11T20:36:42.046Z,70.43
2023-01-11T20:39:09.582Z,20.45
2023-01-11T20:41:50.026Z,30.50
2023-01-11T20:44:22.104Z,33.38
2023-01-11T20:46:49.542Z,36.55
2023-01-11T20:49:17.231Z,19.20
2023-01-11T20:51:44.895Z,6.50
2023-01-11T20:54:12.119Z,15.07
2023-01-11T20:56:39.532Z,5.63
2023-01-11T20:59:07.311Z,6.05
2023-01-11T21:01:34.572Z,6.22
2023-01-11T21:04:02.445Z,5.00
2023-01-11T21:06:30.665Z,5.43
2023-01-11T21:08:58.060Z,5.38
2023-01-11T21:11:25.358Z,6.28
2023-01-11T21:13:53.550Z,5.53
2023-01-11T21:16:22.542Z,5.75
2023-01-11T21:18:53.518Z,5.93
2023-01-11T21:21:20.811Z,6.05
2023-01-11T21:23:47.997Z,6.32
2023-01-11T21:26:16.514Z,5.50
2023-01-11T21:28:43.903Z,6.43
2023-01-11T21:31:12.547Z,4.90
2023-01-11T21:33:39.793Z,5.10
2023-01-11T21:36:08.453Z,4.80
2023-01-11T21:38:35.714Z,5.50
2023-01-11T21:41:06.689Z,6.50
2023-01-11T21:43:33.870Z,4.63
2023-01-11T21:46:01.320Z,5.50
2023-01-11T21:48:28.635Z,5.32
2023-01-11T21:50:55.855Z,5.53
2023-01-11T21:53:23.067Z,5.03
2023-01-11T21:55:50.349Z,4.38
2023-01-11T21:58:17.879Z,4.63
2023-01-11T22:00:45.156Z,4.80
2023-01-11T22:03:12.338Z,4.45
2023-01-11T22:05:39.589Z,5.70
2023-01-11T22:08:06.763Z,5.30
2023-01-11T22:10:34.130Z,5.70
2023-01-11T22:13:01.297Z,5.10
2023-01-11T22:15:28.534Z,5.88
2023-01-11T22:17:55.802Z,5.35
2023-01-11T22:20:23.136Z,5.35
2023-01-11T22:22:50.400Z,4.63
2023-01-11T22:25:17.721Z,4.90
2023-01-11T22:27:45.140Z,5.53
2023-01-11T22:30:12.550Z,4.88
2023-01-11T22:32:40.309Z,5.82
2023-01-11T22:35:07.774Z,4.73
2023-01-11T22:37:34.995Z,5.72
2023-01-11T22:40:02.259Z,5.05
2023-01-11T22:42:29.532Z,5.57
2023-01-11T22:44:58.395Z,4.80
2023-01-11T22:47:25.671Z,6.13
2023-01-11T22:49:53.953Z,5.50
2023-01-11T22:52:21.855Z,6.20
2023-01-11T22:54:49.170Z,6.20
2023-01-11T22:57:16.373Z,8.02
2023-01-11T22:59:43.678Z,6.18
2023-01-11T23:02:10.853Z,5.93
2023-01-11T23:04:38.167Z,6.55
2023-01-11T23:07:05.461Z,6.45
2023-01-11T23:09:32.676Z,6.43
2023-01-11T23:12:18.477Z,6.57
2023-01-11T23:14:45.627Z,6.13
2023-01-11T23:17:12.859Z,6.10
2023-01-11T23:19:40.967Z,7.72
2023-01-11T23:22:08.469Z,7.03
2023-01-11T23:24:36.749Z,6.88
2023-01-11T23:27:04.103Z,6.43
2023-01-11T23:29:31.389Z,6.28
2023-01-11T23:31:58.630Z,7.47
2023-01-11T23:34:25.824Z,6.20
2023-01-11T23:36:53.158Z,7.75
2023-01-11T23:39:20.380Z,7.72
2023-01-11T23:42:06.385Z,7.00
2023-01-11T23:44:33.610Z,8.52
2023-01-11T23:47:19.283Z,7.20
2023-01-11T23:49:46.486Z,6.75
2023-01-11T23:52:13.808Z,6.50
2023-01-11T23:54:41.359Z,7.15
2023-01-11T23:57:09.393Z,6.70
2023-01-11T23:59:36.689Z,6.50
